createdAt,value
2023-04-09T00:08:18.300Z,10.2
2023-04-09T00:23:40.627Z,8.1
2023-04-09T00:39:03.947Z,8.6
2023-04-09T00:54:27.253Z,7.9
2023-04-09T01:09:50.547Z,8
2023-04-09T01:25:13.863Z,9.3
2023-04-09T01:40:37.175Z,8.1
2023-04-09T01:56:00.472Z,8.6
2023-04-09T02:11:23.776Z,8.6
2023-04-09T02:26:47.086Z,10.4
2023-04-09T02:42:10.405Z,9.4
2023-04-09T02:57:33.709Z,10.2
2023-04-09T03:12:57.032Z,10.8
2023-04-09T03:28:20.342Z,9.4
2023-04-09T03:43:42.663Z,10.2
2023-04-09T03:59:05.962Z,10.3
2023-04-09T04:14:29.224Z,9
2023-04-09T04:29:52.497Z,7.8
2023-04-09T04:45:15.777Z,10.1
2023-04-09T05:00:39.038Z,10.1
2023-04-09T05:16:01.321Z,11
2023-04-09T05:31:24.590Z,8.6
2023-04-09T05:46:47.861Z,9.9
2023-04-09T06:02:11.119Z,9
2023-04-09T06:17:34.393Z,7.9
2023-04-09T06:32:57.657Z,7.6
2023-04-09T06:48:20.921Z,9.6
2023-04-09T07:03:44.174Z,10.7
2023-04-09T07:19:07.441Z,7.3
2023-04-09T07:34:30.703Z,8.4
2023-04-09T07:49:53.966Z,8.7
2023-04-09T08:05:17.233Z,10.1
2023-04-09T08:06:40.633Z,13.5
2023-04-09T08:08:03.058Z,18
2023-04-09T08:09:26.463Z,19.1
2023-04-09T08:10:49.882Z,19.5
2023-04-09T08:12:13.294Z,19.1
2023-04-09T08:13:36.699Z,19.4
2023-04-09T08:15:00.101Z,20.5
2023-04-09T08:16:23.510Z,20.2
2023-04-09T08:17:46.935Z,20
2023-04-09T08:19:10.331Z,19.5
2023-04-09T08:20:33.756Z,20.7
2023-04-09T08:21:57.149Z,19.8
2023-04-09T08:23:20.556Z,19.1
2023-04-09T08:24:43.975Z,19.8
2023-04-09T08:26:06.399Z,17.5
2023-04-09T08:27:29.805Z,18.5
2023-04-09T08:28:53.206Z,18.9
2023-04-09T08:30:16.613Z,18.2
2023-04-09T08:31:40.023Z,17.4
2023-04-09T08:33:03.449Z,17.5
2023-04-09T08:34:26.836Z,15.6
2023-04-09T08:35:50.260Z,14.5
2023-04-09T08:38:37.078Z,13.8
2023-04-09T08:40:00.481Z,13.3
2023-04-09T08:41:23.889Z,14.6
2023-04-09T08:42:47.305Z,14.8
2023-04-09T08:44:09.713Z,14.4
2023-04-09T08:45:33.137Z,14.3
2023-04-09T08:46:56.547Z,14.9
2023-04-09T08:48:19.935Z,14.4
2023-04-09T08:49:43.353Z,15.1
2023-04-09T08:51:06.761Z,15.7
2023-04-09T08:52:30.179Z,15.4
2023-04-09T08:53:53.587Z,15.5
2023-04-09T08:55:16.988Z,15.6
2023-04-09T08:56:40.399Z,15.6
2023-04-09T08:58:03.806Z,14.9
2023-04-09T08:59:27.212Z,15.7
2023-04-09T09:00:50.630Z,15.9
2023-04-09T09:02:13.065Z,16
2023-04-09T09:03:36.470Z,15.9
2023-04-09T09:04:59.873Z,16.4
2023-04-09T09:06:23.290Z,15.5
2023-04-09T09:07:46.689Z,15.7
2023-04-09T09:09:10.090Z,14.4
2023-04-09T09:10:33.498Z,14.4
2023-04-09T09:11:56.920Z,14.7
2023-04-09T09:13:20.316Z,15
2023-04-09T09:14:43.730Z,13.9
2023-04-09T09:16:07.148Z,14.3
2023-04-09T09:17:30.544Z,15.6
2023-04-09T09:18:53.964Z,14.5
2023-04-09T09:20:16.381Z,14.9
2023-04-09T09:21:39.790Z,14.5
2023-04-09T09:23:03.194Z,13.6
2023-04-09T09:24:26.610Z,14.3
2023-04-09T09:25:50.020Z,14.4
2023-04-09T09:27:13.426Z,14.7
2023-04-09T09:28:36.842Z,14.8
2023-04-09T09:30:00.246Z,13.9
2023-04-09T09:31:23.638Z,13.6
2023-04-09T09:32:47.049Z,13.7
2023-04-09T09:34:10.469Z,13.7
2023-04-09T09:35:33.870Z,13.8
2023-04-09T09:36:57.271Z,13.2
2023-04-09T09:38:19.700Z,14.1
2023-04-09T09:39:43.109Z,13.7
2023-04-09T09:41:06.515Z,14.3
2023-04-09T09:42:29.922Z,13.5
2023-04-09T09:43:53.339Z,13.7
2023-04-09T09:45:16.751Z,13.4
2023-04-09T09:46:40.154Z,14.2
2023-04-09T09:48:03.556Z,12.9
2023-04-09T09:49:26.966Z,13.8
2023-04-09T09:50:50.387Z,13.6
2023-04-09T09:52:13.797Z,13.5
2023-04-09T09:53:37.202Z,13.6
2023-04-09T09:55:00.614Z,13.7
2023-04-09T09:56:23.024Z,14.1
2023-04-09T09:57:46.434Z,13.3
2023-04-09T09:59:09.839Z,13.7
2023-04-09T10:00:33.251Z,13.2
2023-04-09T10:01:56.654Z,12.5
2023-04-09T10:03:20.076Z,14
2023-04-09T10:04:43.482Z,13.3
2023-04-09T10:06:06.887Z,13.5
2023-04-09T10:07:30.285Z,13.8
2023-04-09T10:08:53.722Z,14.3
2023-04-09T10:10:17.110Z,13.2
2023-04-09T10:11:40.537Z,12.7
2023-04-09T10:13:03.942Z,13.2
2023-04-09T10:14:26.358Z,13.7
2023-04-09T10:15:49.778Z,13.3
2023-04-09T10:17:13.172Z,12.7
2023-04-09T10:18:36.582Z,13.2
2023-04-09T10:19:59.989Z,13.6
2023-04-09T10:21:23.413Z,14.1
2023-04-09T10:22:46.813Z,13.4
2023-04-09T10:24:10.226Z,13.6
2023-04-09T10:25:33.642Z,13.5
2023-04-09T10:26:57.045Z,12.7
2023-04-09T10:28:20.441Z,12.8
2023-04-09T10:29:43.860Z,12.8
2023-04-09T10:31:07.270Z,12.9
2023-04-09T10:32:29.701Z,13.3
2023-04-09T10:33:53.100Z,13
2023-04-09T10:35:16.514Z,12.8
2023-04-09T10:36:39.910Z,13.7
2023-04-09T10:38:03.332Z,13.2
2023-04-09T10:39:26.729Z,12.6
2023-04-09T10:40:50.151Z,12.3
2023-04-09T10:42:13.553Z,13
2023-04-09T10:43:36.967Z,12.7
2023-04-09T10:45:00.373Z,11.2
2023-04-09T10:46:23.772Z,11.5
2023-04-09T10:47:47.186Z,10.9
2023-04-09T10:49:10.597Z,10.7
2023-04-09T10:50:33.020Z,12.8
2023-04-09T10:51:56.431Z,13.5
2023-04-09T10:53:19.836Z,13.3
2023-04-09T10:54:43.235Z,12.8
2023-04-09T10:56:06.657Z,12.8
2023-04-09T10:57:30.074Z,13.2
2023-04-09T10:58:53.465Z,13.1
2023-04-09T11:00:16.875Z,13
2023-04-09T11:01:40.297Z,12.5
2023-04-09T11:03:03.702Z,13.6
2023-04-09T11:04:27.112Z,12.5
2023-04-09T11:05:50.510Z,13
2023-04-09T11:07:13.921Z,13.1
2023-04-09T11:08:36.362Z,12.9
2023-04-09T11:09:59.771Z,13
2023-04-09T11:11:23.179Z,11.9
2023-04-09T11:12:46.585Z,13
2023-04-09T11:14:09.992Z,12.7
2023-04-09T11:15:33.389Z,12.3
2023-04-09T11:16:56.812Z,13.1
2023-04-09T11:18:20.217Z,12.8
2023-04-09T11:19:43.617Z,13.1
2023-04-09T11:21:07.018Z,13.1
2023-04-09T11:22:30.430Z,12.5
2023-04-09T11:23:53.848Z,12.5
2023-04-09T11:25:17.261Z,12.9
2023-04-09T11:26:39.666Z,12
2023-04-09T11:28:03.073Z,12.2
2023-04-09T11:29:26.492Z,12.9
2023-04-09T11:30:49.883Z,12.5
2023-04-09T11:32:13.294Z,12.4
2023-04-09T11:33:36.718Z,11.4
2023-04-09T11:35:00.130Z,12.1
2023-04-09T11:36:23.525Z,12.3
2023-04-09T11:37:46.928Z,12.2
2023-04-09T11:39:10.360Z,12.1
2023-04-09T11:40:33.757Z,12.2
2023-04-09T11:41:57.176Z,11.9
2023-04-09T11:43:20.567Z,12.3
2023-04-09T11:44:42.995Z,11.6
2023-04-09T11:46:06.401Z,11.9
2023-04-09T11:47:29.805Z,11.3
2023-04-09T11:48:53.224Z,11.8
2023-04-09T11:50:16.620Z,11.9
2023-04-09T11:51:40.033Z,12
2023-04-09T11:53:03.442Z,11.6
2023-04-09T11:54:26.874Z,11.7
2023-04-09T11:55:50.285Z,11.4
2023-04-09T11:57:13.674Z,12
2023-04-09T11:58:37.083Z,12
2023-04-09T12:00:00.497Z,11.5
2023-04-09T12:01:23.915Z,11.7
2023-04-09T12:02:46.342Z,11.5
2023-04-09T12:04:09.737Z,11.5
2023-04-09T12:05:33.145Z,11.7
2023-04-09T12:06:56.563Z,12.1
2023-04-09T12:08:19.962Z,11
2023-04-09T12:09:43.382Z,12.1
2023-04-09T12:11:06.776Z,11.4
2023-04-09T12:12:30.187Z,11.4
2023-04-09T12:13:53.607Z,10.8
2023-04-09T12:15:17.021Z,11.3
2023-04-09T12:16:40.425Z,11.4
2023-04-09T12:18:03.823Z,11.2
2023-04-09T12:19:27.233Z,11.7
2023-04-09T12:20:49.673Z,12
2023-04-09T12:22:13.064Z,11.5
2023-04-09T12:23:36.486Z,11.4
2023-04-09T12:24:59.897Z,12.3
2023-04-09T12:26:23.292Z,11.2
2023-04-09T12:27:46.695Z,11.1
2023-04-09T12:29:09.125Z,11.4
2023-04-09T12:30:32.540Z,9.8
2023-04-09T12:31:55.949Z,11.5
2023-04-09T12:33:19.350Z,11.2
2023-04-09T12:34:42.760Z,11.2
2023-04-09T12:36:06.171Z,11.3
2023-04-09T12:37:29.583Z,11
2023-04-09T12:38:52.985Z,12.2
2023-04-09T12:40:16.406Z,11.1
2023-04-09T12:41:39.820Z,10.9
2023-04-09T12:43:03.222Z,10.5
2023-04-09T12:44:26.620Z,10.8
2023-04-09T12:45:50.042Z,10.7
2023-04-09T12:47:12.450Z,11.2
2023-04-09T12:48:35.868Z,10.8
2023-04-09T12:49:59.267Z,10.9
2023-04-09T12:51:22.679Z,10.6
2023-04-09T12:52:46.091Z,10.7
2023-04-09T12:54:09.497Z,10.6
2023-04-09T12:55:32.919Z,10.9
2023-04-09T12:56:56.314Z,10.6
2023-04-09T12:58:19.740Z,10.3
2023-04-09T12:59:43.140Z,10.5
2023-04-09T13:01:06.544Z,10.7
2023-04-09T13:02:29.963Z,11.2
2023-04-09T13:03:53.374Z,10.8
2023-04-09T13:05:15.780Z,10.9
2023-04-09T13:06:39.191Z,11
2023-04-09T13:08:02.597Z,10.5
2023-04-09T13:09:26.022Z,10.5
2023-04-09T13:10:49.426Z,10.8
2023-04-09T13:12:12.850Z,10.5
2023-04-09T13:13:36.249Z,10.1
2023-04-09T13:14:59.666Z,10.9
2023-04-09T13:16:23.073Z,10.4
2023-04-09T13:17:46.479Z,10.5
2023-04-09T13:19:09.883Z,10.8
2023-04-09T13:20:33.286Z,10.5
2023-04-09T13:21:56.701Z,10.4
2023-04-09T13:23:19.127Z,9.7
2023-04-09T13:24:42.521Z,10.4
2023-04-09T13:26:05.933Z,9.7
2023-04-09T13:27:29.340Z,10.6
2023-04-09T13:28:52.760Z,10.1
2023-04-09T13:30:16.171Z,10.4
2023-04-09T13:31:39.572Z,10.1
2023-04-09T13:33:02.992Z,9.9
2023-04-09T13:34:26.398Z,9.3
2023-04-09T13:35:49.789Z,9.6
2023-04-09T13:37:13.215Z,9.4
2023-04-09T13:38:36.612Z,9.1
2023-04-09T13:40:00.020Z,9.1
2023-04-09T13:41:22.462Z,9.1
2023-04-09T13:42:45.875Z,9
2023-04-09T13:44:09.000Z,9.4
2023-04-09T13:45:32.684Z,9.6
2023-04-09T13:46:56.104Z,9.2
2023-04-09T13:48:19.500Z,9.2
2023-04-09T13:49:42.918Z,8.7
2023-04-09T13:51:06.324Z,9.3
2023-04-09T13:52:29.744Z,8
2023-04-09T13:53:53.150Z,7.8
2023-04-09T13:55:16.562Z,8
2023-04-09T13:56:39.968Z,7.6
2023-04-09T13:58:03.374Z,8.5
2023-04-09T13:59:25.796Z,8.3
2023-04-09T14:00:49.199Z,7.7
2023-04-09T14:02:12.621Z,8.7
2023-04-09T14:03:36.014Z,8.7
2023-04-09T14:04:59.438Z,7.9
2023-04-09T14:06:22.843Z,8.4
2023-04-09T14:07:46.254Z,7.8
2023-04-09T14:09:09.654Z,8
2023-04-09T14:10:33.065Z,8.3
2023-04-09T14:11:56.470Z,8.1
2023-04-09T14:13:19.892Z,7.6
2023-04-09T14:14:43.295Z,7.8
2023-04-09T14:16:06.704Z,7.4
2023-04-09T14:17:29.130Z,7.1
2023-04-09T14:18:52.536Z,7.4
2023-04-09T14:20:15.945Z,6.9
2023-04-09T14:21:39.347Z,7
2023-04-09T14:23:02.765Z,7
2023-04-09T14:24:26.164Z,6.8
2023-04-09T14:25:49.581Z,7.1
2023-04-09T14:27:12.993Z,7.2
2023-04-09T14:28:36.408Z,6.9
2023-04-09T14:29:59.817Z,6.8
2023-04-09T14:31:23.229Z,6.4
2023-04-09T14:32:46.619Z,7
2023-04-09T14:34:10.037Z,6.9
2023-04-09T14:35:32.462Z,6.9
2023-04-09T14:36:55.863Z,7.3
2023-04-09T14:38:19.271Z,6.7
2023-04-09T14:39:42.677Z,6.5
2023-04-09T14:41:06.094Z,6.5
2023-04-09T14:42:29.513Z,7.1
2023-04-09T14:43:52.910Z,7
2023-04-09T14:45:16.322Z,6.6
2023-04-09T14:46:39.738Z,6.7
2023-04-09T14:48:03.133Z,6.2
2023-04-09T14:49:26.549Z,6.7
2023-04-09T14:50:49.957Z,6.2
2023-04-09T14:52:13.372Z,6
2023-04-09T14:53:35.792Z,6.3
2023-04-09T14:54:59.196Z,6
2023-04-09T14:56:22.620Z,6.1
2023-04-09T14:57:46.019Z,6.2
2023-04-09T14:59:09.426Z,6.4
2023-04-09T15:00:32.832Z,6.1
2023-04-09T15:01:56.239Z,6.1
2023-04-09T15:03:19.660Z,6.4
2023-04-09T15:04:43.061Z,6.2
2023-04-09T15:06:06.470Z,6.3
2023-04-09T15:07:29.881Z,5.7
2023-04-09T15:08:53.283Z,6.1
2023-04-09T15:10:16.691Z,6
2023-04-09T15:11:39.120Z,5.9
2023-04-09T15:13:02.531Z,5.8
2023-04-09T15:14:25.940Z,5.5
2023-04-09T15:15:49.339Z,5.6
2023-04-09T15:17:12.756Z,5.8
2023-04-09T15:18:36.150Z,5.9
2023-04-09T15:19:59.560Z,5.7
2023-04-09T15:21:22.982Z,5.7
2023-04-09T15:22:46.382Z,5.9
2023-04-09T15:24:09.786Z,5.8
2023-04-09T15:25:33.199Z,5.9
2023-04-09T15:26:56.614Z,5.9
2023-04-09T15:28:20.027Z,6.1
2023-04-09T15:29:42.454Z,6.5
2023-04-09T15:31:05.851Z,5.9
2023-04-09T15:32:29.272Z,6.3
2023-04-09T15:33:52.000Z,6.8
2023-04-09T15:35:16.086Z,5.8
2023-04-09T15:36:39.489Z,5.9
2023-04-09T15:38:02.899Z,5.9
2023-04-09T15:39:26.316Z,5.9
2023-04-09T15:40:49.706Z,6
2023-04-09T15:42:13.120Z,6.4
2023-04-09T15:43:36.527Z,6.4
2023-04-09T15:44:59.952Z,6
2023-04-09T15:46:23.358Z,6.8
2023-04-09T15:47:45.766Z,6.5
2023-04-09T15:49:09.171Z,6.7
2023-04-09T15:50:32.589Z,6.3
2023-04-09T15:51:56.007Z,6.2
2023-04-09T15:53:19.404Z,6.7
2023-04-09T15:54:42.810Z,6.1
2023-04-09T15:56:06.229Z,6.3
2023-04-09T15:57:29.625Z,6.1
2023-04-09T15:58:53.040Z,6
2023-04-09T16:00:16.450Z,6.2
2023-04-09T16:01:39.862Z,6.3
2023-04-09T16:03:03.274Z,7.3
2023-04-09T16:04:26.671Z,7
2023-04-09T16:05:49.097Z,6.6
2023-04-09T16:07:12.520Z,7.1
2023-04-09T16:08:35.921Z,6.8
2023-04-09T16:09:59.322Z,6.9
2023-04-09T16:11:22.729Z,7.3
2023-04-09T16:12:46.150Z,6.6
2023-04-09T16:14:09.549Z,6.7
2023-04-09T16:15:32.966Z,7.9
2023-04-09T16:16:56.375Z,7.9
2023-04-09T16:18:19.780Z,8.1
2023-04-09T16:19:43.196Z,7.1
2023-04-09T16:21:06.588Z,6.9
2023-04-09T16:22:30.013Z,7.3
2023-04-09T16:23:52.422Z,7.7
2023-04-09T16:25:15.830Z,7.4
2023-04-09T16:26:39.254Z,8.7
2023-04-09T16:28:02.658Z,8
2023-04-09T16:29:26.071Z,7.5
2023-04-09T16:30:49.478Z,8
2023-04-09T16:32:12.897Z,8.1
2023-04-09T16:33:36.293Z,8.4
2023-04-09T16:34:59.720Z,7.8
2023-04-09T16:36:23.126Z,7.9
2023-04-09T16:37:46.520Z,7.8
2023-04-09T16:39:09.941Z,8
2023-04-09T16:40:33.347Z,7.7
2023-04-09T16:41:55.776Z,8
2023-04-09T16:43:19.190Z,8.1
2023-04-09T16:44:42.592Z,8.4
2023-04-09T16:46:06.011Z,9
2023-04-09T16:47:29.409Z,8.9
2023-04-09T16:48:52.828Z,9.5
2023-04-09T16:50:16.223Z,9
2023-04-09T16:51:39.642Z,9.9
2023-04-09T16:53:03.045Z,9
2023-04-09T16:55:49.869Z,7.9
2023-04-09T16:57:13.279Z,8
2023-04-09T16:58:36.679Z,8.1
2023-04-09T16:59:59.112Z,7.6
2023-04-09T17:01:22.513Z,8
2023-04-09T17:02:45.922Z,7.8
2023-04-09T17:04:09.344Z,7.9
2023-04-09T17:05:32.739Z,8.3
2023-04-09T17:06:56.157Z,8.5
2023-04-09T17:08:18.581Z,8.6
2023-04-09T17:09:41.989Z,8.6
2023-04-09T17:11:05.411Z,9.3
2023-04-09T17:12:28.821Z,8.4
2023-04-09T17:13:52.221Z,8.2
2023-04-09T17:15:15.630Z,8.1
2023-04-09T17:16:39.042Z,9.1
2023-04-09T17:18:02.447Z,8.7
2023-04-09T17:19:25.856Z,9.2
2023-04-09T17:20:49.265Z,9.5
2023-04-09T17:22:12.668Z,9
2023-04-09T17:23:36.083Z,9.8
2023-04-09T17:24:59.500Z,10.3
2023-04-09T17:26:21.915Z,10.1
2023-04-09T17:27:45.330Z,11
2023-04-09T17:29:08.727Z,10.5
2023-04-09T17:30:32.148Z,10.2
2023-04-09T17:31:55.560Z,11.2
2023-04-09T17:33:18.953Z,10.6
2023-04-09T17:34:42.362Z,10.6
2023-04-09T17:36:05.770Z,10.6
2023-04-09T17:37:29.190Z,10.7
2023-04-09T17:38:52.582Z,11.1
2023-04-09T17:40:15.995Z,10.9
2023-04-09T17:41:39.397Z,11.3
2023-04-09T17:43:02.825Z,11.1
2023-04-09T17:44:25.247Z,11.6
2023-04-09T17:45:48.647Z,11
2023-04-09T17:47:12.074Z,11.3
2023-04-09T17:48:35.488Z,12.6
2023-04-09T17:49:58.881Z,13.6
2023-04-09T17:51:22.297Z,12.5
2023-04-09T17:52:45.718Z,14
2023-04-09T17:54:09.123Z,14.4
2023-04-09T17:55:32.528Z,14.8
2023-04-09T17:56:55.934Z,14.3
2023-04-09T17:58:19.340Z,14
2023-04-09T17:59:42.737Z,13
2023-04-09T18:01:06.158Z,12.6
2023-04-09T18:02:28.583Z,12.1
2023-04-09T18:03:51.993Z,12.4
2023-04-09T18:05:15.393Z,12.8
2023-04-09T18:06:38.802Z,12.2
2023-04-09T18:08:02.208Z,12.5
2023-04-09T18:09:25.632Z,11.8
2023-04-09T18:10:49.029Z,12.2
2023-04-09T18:12:12.430Z,12.1
2023-04-09T18:13:35.848Z,11.2
2023-04-09T18:14:59.263Z,12
2023-04-09T18:16:22.661Z,12.7
2023-04-09T18:17:46.076Z,13.6
2023-04-09T18:19:09.485Z,12.4
2023-04-09T18:20:31.955Z,10.9
2023-04-09T18:21:55.348Z,11.3
2023-04-09T18:23:18.768Z,11.4
2023-04-09T18:24:42.210Z,10.8
2023-04-09T18:26:05.656Z,10.5
2023-04-09T18:27:29.106Z,10.8
2023-04-09T18:28:52.561Z,12.3
2023-04-09T18:30:16.023Z,11.4
2023-04-09T18:31:39.484Z,12.8
2023-04-09T18:33:02.916Z,15.2
2023-04-09T18:34:26.370Z,15.7
2023-04-09T18:35:49.833Z,14.4
2023-04-09T18:37:13.270Z,15.3
2023-04-09T18:38:35.736Z,14.5
2023-04-09T18:39:59.185Z,15
2023-04-09T18:41:22.640Z,14.4
2023-04-09T18:42:46.095Z,14.2
2023-04-09T18:44:09.545Z,14.3
2023-04-09T18:45:32.991Z,14.3
2023-04-09T18:46:56.440Z,14
2023-04-09T18:48:19.903Z,14.2
2023-04-09T18:49:43.345Z,14.2
2023-04-09T18:51:06.804Z,14.2
2023-04-09T18:52:30.244Z,14
2023-04-09T18:53:53.684Z,15
2023-04-09T18:55:17.145Z,14.4
2023-04-09T18:56:39.601Z,14.8
2023-04-09T18:58:03.063Z,16
2023-04-09T18:59:26.511Z,15.8
2023-04-09T19:00:49.955Z,16.2
2023-04-09T19:02:13.408Z,16.6
2023-04-09T19:03:36.857Z,17.2
2023-04-09T19:05:00.315Z,16.5
2023-04-09T19:06:23.749Z,16.8
2023-04-09T19:07:47.205Z,17
2023-04-09T19:09:10.658Z,16
2023-04-09T19:10:34.103Z,14
2023-04-09T19:11:57.552Z,13.7
2023-04-09T19:13:21.002Z,14
2023-04-09T19:14:43.464Z,13.8
2023-04-09T19:16:06.910Z,13.9
2023-04-09T19:17:30.378Z,14.3
2023-04-09T19:18:53.812Z,17.6
2023-04-09T19:20:17.269Z,21.6
2023-04-09T19:21:40.711Z,15.7
2023-04-09T19:23:04.158Z,13.8
2023-04-09T19:24:27.615Z,12.5
2023-04-09T19:25:51.079Z,12.4
2023-04-09T19:27:14.530Z,12.4
2023-04-09T19:28:37.976Z,12.7
2023-04-09T19:30:01.428Z,12.9
2023-04-09T19:31:24.864Z,12.1
2023-04-09T19:32:47.333Z,12.7
2023-04-09T19:34:10.793Z,12.4
2023-04-09T19:35:34.248Z,12.6
2023-04-09T19:36:57.683Z,12.5
2023-04-09T19:38:21.136Z,11.6
2023-04-09T19:39:44.586Z,11.2
2023-04-09T19:41:08.034Z,11.5
2023-04-09T19:42:31.492Z,11.2
2023-04-09T19:43:54.945Z,12.6
2023-04-09T19:45:18.402Z,14.9
2023-04-09T19:46:41.849Z,22.6
2023-04-09T19:48:05.299Z,24.5
2023-04-09T19:49:28.743Z,19.8
2023-04-09T19:50:51.204Z,16.1
2023-04-09T19:52:14.655Z,14.8
2023-04-09T19:53:38.109Z,15.1
2023-04-09T19:55:01.550Z,12.8
2023-04-09T19:56:25.000Z,14
2023-04-09T19:57:48.470Z,13.7
2023-04-09T19:59:11.913Z,14.3
2023-04-09T20:00:35.351Z,13.4
2023-04-09T20:01:58.812Z,14.9
2023-04-09T20:03:22.262Z,16.3
2023-04-09T20:04:45.716Z,17.8
2023-04-09T20:06:09.172Z,19.4
2023-04-09T20:07:32.610Z,20
2023-04-09T20:08:55.089Z,19.5
2023-04-09T20:10:18.521Z,18.1
2023-04-09T20:11:41.978Z,16.8
2023-04-09T20:13:05.433Z,16.3
2023-04-09T20:14:28.885Z,15
2023-04-09T20:15:52.330Z,14.1
2023-04-09T20:17:15.779Z,14.8
2023-04-09T20:18:39.229Z,14.2
2023-04-09T20:20:02.678Z,13.8
2023-04-09T20:21:26.133Z,12.9
2023-04-09T20:22:49.571Z,13.2
2023-04-09T20:24:13.037Z,13.6
2023-04-09T20:25:36.478Z,13.9
2023-04-09T20:26:58.949Z,13.7
2023-04-09T20:28:22.403Z,14.6
2023-04-09T20:29:45.858Z,14.8
2023-04-09T20:31:09.300Z,13.6
2023-04-09T20:32:32.762Z,14
2023-04-09T20:33:56.196Z,14.8
2023-04-09T20:35:19.661Z,13.8
2023-04-09T20:36:43.099Z,14.5
2023-04-09T20:38:06.556Z,14.5
2023-04-09T20:39:29.998Z,14
2023-04-09T20:40:53.456Z,13.6
2023-04-09T20:42:16.895Z,12.8
2023-04-09T20:43:40.360Z,14.9
2023-04-09T20:45:02.811Z,14.8
2023-04-09T20:46:26.265Z,14.4
2023-04-09T20:47:49.713Z,15.3
2023-04-09T20:49:13.157Z,15.9
2023-04-09T20:50:36.617Z,16.4
2023-04-09T20:52:00.064Z,16.2
2023-04-09T20:53:23.505Z,16.9
2023-04-09T20:54:46.961Z,17.6
2023-04-09T20:56:10.412Z,14.9
2023-04-09T20:57:33.861Z,15
2023-04-09T20:58:57.306Z,15.2
2023-04-09T21:00:20.763Z,14.5
2023-04-09T21:01:44.201Z,15.2
2023-04-09T21:03:06.688Z,14.7
2023-04-09T21:04:30.134Z,14.9
2023-04-09T21:19:53.440Z,9.4
2023-04-09T21:35:16.725Z,9.7
2023-04-09T21:50:40.037Z,8.1
2023-04-09T22:06:03.339Z,8.3
2023-04-09T22:21:26.606Z,16.5
2023-04-09T22:36:49.921Z,9.6
2023-04-09T22:52:13.211Z,8.6
2023-04-09T23:07:36.525Z,9.7
2023-04-09T23:22:59.828Z,9.9
2023-04-09T23:38:23.140Z,9.3
2023-04-09T23:53:46.445Z,8.9
